Terminal Aerodrome Forecast
Issued by NWS Sterling, VA

Current Version | Previous Version | Text Only | Print | Product List | Glossary Off
Versions: 1 2 3 4 5 6 7 8 9 10 11 12 13 14 15 16 17 18 19 20 21 22 23 24 25 26

503
FTUS41 KLWX 231729
TAFDCA
TAF
KDCA 231729Z 2318/2418 22012KT P6SM BKN040
     FM240300 21009KT 6SM -SHRA BKN070
     FM240600 20009KT 4SM SHRA OVC035 WS020/25030KT
     FM241000 22009KT 5SM -SHRA OVC035
     FM241200 28009KT P6SM BKN045
     FM241500 28012G22KT P6SM BKN050
     FM241700 29012G20KT P6SM SCT250=

USA.gov is the U.S. government's official web portal to all federal, state and local government web resources and services.